Time;durP1;ratioP1;P1;durP2;ratioP2;P2;SDS_P1;SDS_P2;PMS_P1;PMS_P2;Temp;Humidity;BMP_temperature;BMP_pressure;BME280_temperature;BME280_humidity;BME280_pressure;Samples;Min_cycle;Max_cycle;Signal;HPM_P1;HPM_P2
2022/10/13 00:01:41;;;;;;;;;13.67;12.33;;;;;16.70;58.20;101418.69;5032556;28;45399;-57
2022/10/13 00:04:07;;;;;;;;;13.67;12.00;;;;;16.60;58.18;101403.28;5035664;28;45495;-58
2022/10/13 00:06:32;;;;;;;;;16.00;12.67;;;;;16.65;58.52;101414.56;5035579;28;45470;-57
2022/10/13 00:08:58;;;;;;;;;13.00;11.33;;;;;16.68;58.47;101430.53;5046496;28;45494;-57
2022/10/13 00:11:25;;;;;;;;;13.67;11.00;;;;;16.65;58.35;101419.94;5014019;28;45434;-58
2022/10/13 00:13:55;;;;;;;;;7.00;7.00;;;;;16.65;58.77;101423.47;5019592;28;45457;-59
2022/10/13 00:16:20;;;;;;;;;11.67;10.00;;;;;16.61;58.68;101418.44;5018794;28;45531;-56
2022/10/13 00:18:47;;;;;;;;;12.67;12.67;;;;;16.62;58.59;101421.00;5026445;28;45693;-58
2022/10/13 00:21:22;;;;;;;;;14.67;13.67;;;;;16.63;58.63;101428.09;5034178;28;45438;-58
2022/10/13 00:23:48;;;;;;;;;13.00;13.00;;;;;16.64;58.65;101426.28;5032439;28;45569;-57
2022/10/13 00:26:15;;;;;;;;;13.67;13.00;;;;;16.64;58.76;101429.81;5033154;28;46463;-57
2022/10/13 00:28:41;;;;;;;;;12.00;10.67;;;;;16.58;58.55;101407.91;5033867;28;45411;-59
2022/10/13 00:31:18;;;;;;;;;16.33;14.00;;;;;16.64;58.64;101415.53;5030673;28;45363;-58
2022/10/13 00:33:44;;;;;;;;;11.33;9.67;;;;;16.65;58.14;101417.25;5027681;28;45557;-59
2022/10/13 00:36:09;;;;;;;;;12.33;12.00;;;;;16.64;58.49;101402.09;5033858;28;46802;-59
2022/10/13 00:38:34;;;;;;;;;13.00;11.33;;;;;16.62;58.64;101387.91;5035177;28;45455;-59
2022/10/13 00:41:00;;;;;;;;;11.00;11.00;;;;;16.61;58.41;101387.06;5032946;28;45493;-59
2022/10/13 00:43:47;;;;;;;;;14.00;14.00;;;;;16.56;58.66;101377.63;5024585;28;45485;-56
2022/10/13 00:46:14;;;;;;;;;17.00;13.33;;;;;16.58;58.82;101391.78;5032205;28;46112;-58
2022/10/13 00:48:42;;;;;;;;;13.00;13.00;;;;;16.56;59.07;101394.59;5034668;28;45395;-56
2022/10/13 00:51:09;;;;;;;;;14.67;14.67;;;;;16.55;58.96;101387.50;5035107;28;45334;-58
2022/10/13 00:53:38;;;;;;;;;15.33;15.33;;;;;16.57;59.18;101388.25;5033664;28;45551;-58
2022/10/13 00:56:10;;;;;;;;;16.33;15.00;;;;;16.55;59.36;101386.63;5033404;28;45482;-57
2022/10/13 00:58:37;;;;;;;;;19.33;14.33;;;;;16.56;59.32;101383.84;5033640;28;45501;-57
2022/10/13 01:01:05;;;;;;;;;14.67;14.67;;;;;16.49;59.54;101374.47;5029770;28;45605;-58
2022/10/13 01:03:30;;;;;;;;;15.67;15.67;;;;;16.55;59.62;101392.88;5025390;28;45547;-61
2022/10/13 01:06:00;;;;;;;;;19.00;17.33;;;;;16.53;59.71;101390.25;5031531;28;45336;-58
2022/10/13 01:08:27;;;;;;;;;15.00;13.67;;;;;16.48;59.88;101392.41;5032928;28;45335;-59
2022/10/13 01:11:21;;;;;;;;;17.00;16.00;;;;;16.46;59.69;101388.13;5032701;28;45343;-58
2022/10/13 01:14:05;;;;;;;;;17.67;16.00;;;;;16.52;59.84;101393.91;5034791;28;45609;-59
2022/10/13 01:17:16;;;;;;;;;19.67;15.00;;;;;16.51;59.87;101397.56;5033364;28;46835;-59
2022/10/13 01:20:00;;;;;;;;;23.33;18.67;;;;;16.50;60.04;101390.47;5033744;28;45345;-58
2022/10/13 01:22:38;;;;;;;;;16.67;16.00;;;;;16.47;60.39;101382.63;5011555;28;45320;-58
2022/10/13 01:25:29;;;;;;;;;14.00;14.00;;;;;16.47;60.09;101374.59;5029582;28;45396;-58
2022/10/13 01:27:57;;;;;;;;;23.67;15.33;;;;;16.48;60.10;101392.41;5037925;28;45470;-58
2022/10/13 01:30:22;;;;;;;;;18.67;15.33;;;;;16.41;60.05;101372.34;5034978;28;45180;-57
2022/10/13 01:32:53;;;;;;;;;17.00;15.00;;;;;16.46;60.24;101370.19;5036649;28;45243;-60
2022/10/13 01:35:32;;;;;;;;;12.00;12.00;;;;;16.45;60.69;101357.72;5035748;28;45350;-58
2022/10/13 01:38:24;;;;;;;;;14.00;14.00;;;;;16.38;60.66;101355.56;5028197;28;46378;-59
2022/10/13 01:40:59;;;;;;;;;16.00;15.00;;;;;16.44;61.16;101377.47;5030286;27;45613;-59
2022/10/13 01:43:30;;;;;;;;;15.00;14.00;;;;;16.37;60.59;101349.31;5025146;28;45327;-59
2022/10/13 01:46:41;;;;;;;;;18.00;13.00;;;;;16.46;60.52;101364.81;5036783;28;45347;-61
2022/10/13 01:49:15;;;;;;;;;15.33;14.33;;;;;16.44;60.86;101374.81;5035924;28;45460;-57
2022/10/13 01:51:42;;;;;;;;;13.67;11.67;;;;;16.41;60.96;101380.38;5036412;28;45248;-60
2022/10/13 01:54:08;;;;;;;;;11.67;11.00;;;;;16.41;60.76;101384.91;5035405;28;45276;-58
2022/10/13 01:56:34;;;;;;;;;15.00;11.00;;;;;16.37;61.46;101367.25;5028184;28;45620;-58
2022/10/13 01:59:04;;;;;;;;;14.33;13.33;;;;;16.40;60.98;101367.03;5035981;28;45598;-58
2022/10/13 02:02:11;;;;;;;;;13.67;11.00;;;;;16.34;61.68;101360.28;5035606;28;45402;-57
2022/10/13 02:05:13;;;;;;;;;21.00;13.33;;;;;16.37;61.57;101368.13;5033424;28;45439;-58
2022/10/13 02:07:50;;;;;;;;;14.67;11.33;;;;;16.36;61.94;101371.75;5036805;28;45306;-60
2022/10/13 02:10:37;;;;;;;;;16.67;14.33;;;;;16.36;62.00;101361.03;5029510;28;46378;-57
2022/10/13 02:13:05;;;;;;;;;13.00;10.33;;;;;16.38;61.79;101366.28;5036140;28;46984;-58
2022/10/13 02:15:38;;;;;;;;;13.33;12.33;;;;;16.38;62.20;101363.59;5019451;28;45602;-58
2022/10/13 02:18:07;;;;;;;;;12.00;10.00;;;;;16.30;62.25;101339.97;5021847;28;45324;-58
2022/10/13 02:20:33;;;;;;;;;12.33;11.00;;;;;16.30;62.40;101334.63;5035243;28;46152;-58
2022/10/13 02:23:04;;;;;;;;;8.67;8.67;;;;;16.37;62.54;101340.41;5048691;28;45390;-59
2022/10/13 02:25:30;;;;;;;;;10.00;9.67;;;;;16.38;62.71;101343.00;5034971;28;45452;-59
2022/10/13 02:27:59;;;;;;;;;14.33;9.33;;;;;16.36;62.55;101339.56;5038152;28;45348;-59
2022/10/13 02:30:28;;;;;;;;;6.33;5.00;;;;;16.38;62.56;101334.06;5033018;28;45468;-60
2022/10/13 02:32:54;;;;;;;;;11.67;10.00;;;;;16.37;62.92;101329.66;5030956;28;45486;-59
2022/10/13 02:35:20;;;;;;;;;14.33;11.00;;;;;16.37;62.73;101335.03;5037556;28;45335;-60
2022/10/13 02:37:45;;;;;;;;;12.00;10.33;;;;;16.40;62.62;101329.44;5036602;28;45453;-59
2022/10/13 02:40:12;;;;;;;;;11.00;9.67;;;;;16.39;62.53;101323.22;5032611;28;45972;-56
2022/10/13 02:42:37;;;;;;;;;9.67;7.33;;;;;16.41;62.79;101324.00;5018113;28;45371;-55
2022/10/13 02:45:03;;;;;;;;;9.67;9.67;;;;;16.40;62.69;101308.84;5017369;28;45378;-58
2022/10/13 02:47:29;;;;;;;;;11.00;7.67;;;;;16.41;62.31;101310.59;5038024;28;45307;-57
2022/10/13 02:49:54;;;;;;;;;13.33;11.00;;;;;16.38;62.81;101283.94;5017396;28;46786;-62
2022/10/13 02:52:20;;;;;;;;;6.33;6.00;;;;;16.42;62.33;101280.09;5030566;28;45275;-58
2022/10/13 02:54:45;;;;;;;;;12.67;11.33;;;;;16.44;62.61;101283.53;5035665;28;45333;-58
2022/10/13 02:57:10;;;;;;;;;13.33;5.67;;;;;16.41;62.81;101294.47;5037779;28;45693;-59
2022/10/13 02:59:36;;;;;;;;;11.00;10.00;;;;;16.36;62.67;101293.06;5034279;28;45984;-59
2022/10/13 03:02:01;;;;;;;;;11.33;10.00;;;;;16.42;62.52;101306.94;5033929;28;45521;-57
2022/10/13 03:04:27;;;;;;;;;7.00;7.00;;;;;16.44;62.52;101306.81;5036485;28;45542;-57
2022/10/13 03:06:52;;;;;;;;;13.33;11.00;;;;;16.44;62.56;101315.72;5034906;28;45250;-58
2022/10/13 03:09:18;;;;;;;;;12.00;9.33;;;;;16.46;62.64;101311.13;5031478;27;45390;-57
2022/10/13 03:11:43;;;;;;;;;13.00;8.67;;;;;16.45;62.36;101306.72;5052091;28;45275;-58
2022/10/13 03:14:09;;;;;;;;;10.33;10.33;;;;;16.46;62.47;101305.75;5035049;28;45227;-59
2022/10/13 03:16:34;;;;;;;;;12.67;11.67;;;;;16.45;62.20;101306.72;5025932;28;45772;-58
2022/10/13 03:18:59;;;;;;;;;8.00;8.00;;;;;16.42;62.66;101301.56;5045112;28;46813;-58
2022/10/13 03:21:25;;;;;;;;;8.33;8.33;;;;;16.45;62.44;101304.03;5037499;28;45347;-57
2022/10/13 03:23:50;;;;;;;;;10.33;10.33;;;;;16.43;62.49;101294.38;5035985;28;45709;-60
2022/10/13 03:26:16;;;;;;;;;8.33;8.33;;;;;16.47;62.41;101294.03;5033226;28;45607;-57
2022/10/13 03:28:42;;;;;;;;;10.33;8.33;;;;;16.46;62.88;101281.56;5032977;28;46088;-59
2022/10/13 03:31:09;;;;;;;;;12.33;10.67;;;;;16.42;62.87;101274.72;5033452;28;45391;-62
2022/10/13 03:33:35;;;;;;;;;10.67;10.00;;;;;16.45;62.92;101281.69;5034412;28;45463;-57
2022/10/13 03:36:04;;;;;;;;;14.67;12.33;;;;;16.44;62.76;101280.84;5035759;28;45430;-58
2022/10/13 03:38:32;;;;;;;;;12.00;12.00;;;;;16.43;62.85;101270.22;5026032;28;45525;-58
2022/10/13 03:41:03;;;;;;;;;14.00;14.00;;;;;16.41;63.07;101266.78;5025997;28;46086;-57
2022/10/13 03:43:29;;;;;;;;;16.00;11.00;;;;;16.29;62.76;101244.31;5023165;28;45482;-58
2022/10/13 03:45:56;;;;;;;;;12.33;10.67;;;;;16.38;62.76;101251.72;5035579;28;45609;-58
2022/10/13 03:48:22;;;;;;;;;13.67;11.00;;;;;16.30;62.77;101237.13;5035536;28;46135;-58
2022/10/13 03:50:48;;;;;;;;;12.00;10.00;;;;;16.38;62.80;101249.03;5034317;28;45889;-57
2022/10/13 03:53:13;;;;;;;;;8.67;8.33;;;;;16.37;62.79;101255.38;5049314;28;45752;-58
2022/10/13 03:55:38;;;;;;;;;13.00;10.00;;;;;16.37;63.08;101244.63;5036622;28;45387;-59
2022/10/13 03:58:04;;;;;;;;;11.67;11.33;;;;;16.37;62.89;101236.56;5034828;28;46019;-58
2022/10/13 04:00:29;;;;;;;;;14.33;13.33;;;;;16.32;63.29;101241.41;5049587;28;45534;-58
2022/10/13 04:02:54;;;;;;;;;15.67;14.33;;;;;16.34;63.45;101239.47;5034418;28;45371;-59
2022/10/13 04:05:20;;;;;;;;;13.67;12.00;;;;;16.29;63.37;101236.28;5034864;28;45488;-57
2022/10/13 04:07:45;;;;;;;;;16.33;16.00;;;;;16.31;63.55;101247.75;5032837;28;46209;-59
2022/10/13 04:10:10;;;;;;;;;12.67;12.00;;;;;16.29;63.67;101241.63;5025852;28;45378;-59
2022/10/13 04:12:36;;;;;;;;;15.33;12.33;;;;;16.29;63.68;101236.28;5033833;28;45493;-59
2022/10/13 04:15:01;;;;;;;;;15.00;13.00;;;;;16.27;63.72;101243.53;5032706;28;45570;-58
2022/10/13 04:17:26;;;;;;;;;13.00;12.00;;;;;16.26;63.76;101243.66;5014737;28;45391;-60
2022/10/13 04:19:52;;;;;;;;;13.67;12.00;;;;;16.26;63.61;101247.19;5027015;28;45491;-58
2022/10/13 04:22:17;;;;;;;;;20.33;15.33;;;;;16.20;63.71;101247.63;5036666;28;45284;-60
2022/10/13 04:24:43;;;;;;;;;12.33;12.33;;;;;16.20;63.90;101253.00;5023449;28;45640;-57
2022/10/13 04:27:09;;;;;;;;;16.67;14.00;;;;;16.18;63.79;101247.75;5027277;28;46246;-59
2022/10/13 04:29:34;;;;;;;;;15.00;12.33;;;;;16.13;64.09;101251.69;5033740;28;45213;-59
2022/10/13 04:32:00;;;;;;;;;18.00;14.00;;;;;16.15;63.97;101260.53;5032930;28;45406;-58
2022/10/13 04:34:25;;;;;;;;;17.00;12.00;;;;;16.11;63.74;101254.47;5018829;28;45399;-57
2022/10/13 04:36:51;;;;;;;;;13.00;12.67;;;;;16.13;63.95;101268.66;5031344;28;46202;-59
2022/10/13 04:39:17;;;;;;;;;14.33;12.33;;;;;16.19;63.62;101270.06;5032866;28;47092;-58
2022/10/13 04:41:42;;;;;;;;;10.67;10.67;;;;;16.19;63.92;101259.34;5032362;28;45544;-58
2022/10/13 04:44:08;;;;;;;;;13.67;11.00;;;;;16.20;63.87;101255.69;5032573;28;45253;-57
2022/10/13 04:46:39;;;;;;;;;13.67;12.00;;;;;16.19;63.69;101262.88;5034972;28;46232;-58
2022/10/13 04:49:04;;;;;;;;;12.67;11.00;;;;;16.21;63.63;101254.72;5047806;28;45385;-59
2022/10/13 04:51:30;;;;;;;;;16.33;12.67;;;;;16.22;63.87;101256.44;5032481;28;45268;-59
2022/10/13 04:53:57;;;;;;;;;14.67;13.33;;;;;16.22;63.90;101249.25;5026040;28;45711;-57
2022/10/13 04:56:24;;;;;;;;;18.00;15.00;;;;;16.22;63.90;101240.34;5034387;28;45422;-59
2022/10/13 04:58:52;;;;;;;;;12.00;10.33;;;;;16.24;63.71;101243.75;5033483;28;45473;-59
2022/10/13 05:01:21;;;;;;;;;12.33;11.33;;;;;16.23;63.97;101240.22;5031403;28;45471;-59
2022/10/13 05:03:50;;;;;;;;;14.33;12.67;;;;;16.19;63.91;101237.88;5016690;28;45470;-60
2022/10/13 05:06:18;;;;;;;;;14.33;12.33;;;;;16.21;63.67;101233.25;5028493;28;45986;-61
2022/10/13 05:08:43;;;;;;;;;13.33;10.33;;;;;16.20;64.52;101243.13;5032737;28;45437;-57
2022/10/13 05:11:13;;;;;;;;;13.33;11.67;;;;;16.17;64.06;101247.84;5018925;28;45392;-57
2022/10/13 05:13:38;;;;;;;;;12.00;10.67;;;;;16.17;64.22;101245.16;5016130;28;45446;-59
2022/10/13 05:16:08;;;;;;;;;13.33;12.67;;;;;16.12;64.31;101237.41;5015160;28;46121;-59
2022/10/13 05:18:34;;;;;;;;;10.00;10.00;;;;;16.12;64.37;101233.88;5014946;28;45435;-58
2022/10/13 05:21:31;;;;;;;;;11.67;11.33;;;;;16.07;64.57;101231.53;5015801;28;45337;-61
2022/10/13 05:24:06;;;;;;;;;11.00;11.00;;;;;16.04;64.88;101238.94;4999139;28;45405;-58
2022/10/13 05:26:34;;;;;;;;;11.33;10.33;;;;;15.97;64.95;101229.56;5029051;28;45355;-59
2022/10/13 05:29:01;;;;;;;;;12.00;12.00;;;;;15.96;65.12;101230.53;5035071;28;45343;-57
2022/10/13 05:31:28;;;;;;;;;11.33;9.33;;;;;15.93;65.30;101236.97;5032445;28;45312;-58
2022/10/13 05:33:55;;;;;;;;;15.33;10.00;;;;;15.91;65.50;101230.88;5023157;28;45474;-59
2022/10/13 05:36:26;;;;;;;;;11.00;11.00;;;;;15.90;65.42;101234.50;5014362;28;45492;-59
2022/10/13 05:38:54;;;;;;;;;11.33;10.33;;;;;15.89;65.63;101222.91;5016137;28;45376;-59
2022/10/13 05:41:21;;;;;;;;;12.00;12.00;;;;;15.87;65.53;101206.03;5015956;28;45372;-62
2022/10/13 05:43:47;;;;;;;;;11.33;10.33;;;;;15.89;65.43;101216.69;5014947;28;45407;-60
2022/10/13 05:46:12;;;;;;;;;14.00;12.33;;;;;15.91;65.68;101210.25;5030590;28;46889;-60
2022/10/13 05:48:37;;;;;;;;;14.00;10.67;;;;;15.94;65.32;101203.81;5014176;28;45466;-60
2022/10/13 05:51:14;;;;;;;;;12.00;10.67;;;;;15.96;65.35;101209.06;5015439;28;45331;-60
2022/10/13 05:53:44;;;;;;;;;12.00;12.00;;;;;15.92;65.47;101195.88;5021232;28;45586;-60
2022/10/13 05:56:15;;;;;;;;;11.00;10.67;;;;;15.93;65.13;101197.59;5032809;28;46437;-58
2022/10/13 05:58:50;;;;;;;;;15.33;11.00;;;;;15.96;65.76;101191.16;5038677;28;45421;-59
2022/10/13 06:01:19;;;;;;;;;10.67;10.00;;;;;15.99;65.44;101196.31;5038418;28;45452;-58
2022/10/13 06:03:48;;;;;;;;;13.67;11.00;;;;;16.01;65.48;101198.88;5037402;28;46013;-59
2022/10/13 06:06:14;;;;;;;;;11.67;10.00;;;;;15.98;65.49;101199.09;5037806;28;46366;-60
2022/10/13 06:08:41;;;;;;;;;12.00;10.67;;;;;15.98;65.31;101220.56;5038362;28;45429;-60
2022/10/13 06:11:07;;;;;;;;;10.00;10.00;;;;;15.96;65.35;101211.75;5034848;28;45517;-58
2022/10/13 06:13:32;;;;;;;;;11.67;9.33;;;;;15.92;65.37;101211.13;5017553;28;45641;-59
2022/10/13 06:15:58;;;;;;;;;8.67;8.67;;;;;15.95;65.66;101212.72;5019539;28;45553;-60
2022/10/13 06:18:24;;;;;;;;;12.00;11.00;;;;;15.96;65.76;101215.28;5017257;28;45545;-62
2022/10/13 06:20:49;;;;;;;;;12.00;12.00;;;;;15.95;65.42;101215.41;5017977;28;45430;-60
2022/10/13 06:23:14;;;;;;;;;8.00;6.00;;;;;15.87;64.68;101205.19;5026635;28;45303;-59
2022/10/13 06:25:50;;;;;;;;;9.00;6.00;;;;;15.95;64.09;101224.31;5037135;28;45636;-59
2022/10/13 06:28:22;;;;;;;;;9.00;7.00;;;;;15.93;64.17;101213.69;5036744;28;45443;-59
2022/10/13 06:30:53;;;;;;;;;8.33;6.33;;;;;15.95;63.98;101210.03;5038250;28;45316;-57
2022/10/13 06:33:20;;;;;;;;;7.00;6.00;;;;;15.90;63.51;101197.81;5036626;28;45518;-58
2022/10/13 06:35:54;;;;;;;;;8.00;6.33;;;;;15.89;63.51;101206.81;4998498;28;46202;-58
2022/10/13 06:38:19;;;;;;;;;10.33;7.00;;;;;15.93;63.69;101205.66;4995801;28;45870;-56
2022/10/13 06:40:45;;;;;;;;;6.00;6.00;;;;;15.91;63.72;101202.22;5002857;28;45539;-59
2022/10/13 06:43:10;;;;;;;;;5.00;5.00;;;;;15.87;63.48;101203.38;5017312;28;45365;-58
2022/10/13 06:45:39;;;;;;;;;7.67;6.00;;;;;15.86;63.86;101200.78;5017797;28;46597;-59
2022/10/13 06:48:05;;;;;;;;;6.00;6.00;;;;;15.77;63.40;101180.84;5017828;28;45169;-58
2022/10/13 06:50:31;;;;;;;;;6.33;6.00;;;;;15.83;63.68;101201.88;5016708;28;45361;-60
2022/10/13 06:52:59;;;;;;;;;7.00;7.00;;;;;15.82;63.75;101205.50;5018421;28;45313;-59
2022/10/13 06:55:25;;;;;;;;;5.33;5.33;;;;;15.84;63.87;101217.00;5018154;28;45951;-58
2022/10/13 06:57:50;;;;;;;;;6.67;5.67;;;;;15.77;64.09;101210.34;5017889;28;45336;-60
2022/10/13 07:00:16;;;;;;;;;8.33;7.67;;;;;15.75;64.78;101220.28;5016187;28;45299;-61
2022/10/13 07:02:41;;;;;;;;;10.00;7.33;;;;;15.68;64.16;101202.06;5016694;28;45352;-60
2022/10/13 07:05:07;;;;;;;;;6.67;5.00;;;;;15.73;64.40;101214.19;5018441;28;46210;-59
2022/10/13 07:07:33;;;;;;;;;14.00;9.00;;;;;15.63;64.62;101205.91;5018194;28;45339;-60
2022/10/13 07:09:58;;;;;;;;;5.67;4.00;;;;;15.62;64.34;101208.66;5018676;28;45344;-57
2022/10/13 07:12:24;;;;;;;;;4.33;4.00;;;;;15.66;65.13;101234.34;5018039;28;45575;-60
2022/10/13 07:14:49;;;;;;;;;8.67;5.67;;;;;15.67;65.16;101232.50;5017567;28;46197;-58
2022/10/13 07:17:15;;;;;;;;;8.33;6.33;;;;;15.60;65.19;101235.59;5017245;28;45312;-58
2022/10/13 07:19:40;;;;;;;;;9.00;9.00;;;;;15.56;65.53;101234.06;5017510;28;45453;-58
2022/10/13 07:22:06;;;;;;;;;9.00;5.33;;;;;15.52;65.95;101234.38;5018012;28;45233;-58
2022/10/13 07:24:34;;;;;;;;;6.00;6.00;;;;;15.52;65.83;101237.91;5016625;28;46145;-56
2022/10/13 07:27:00;;;;;;;;;8.67;6.00;;;;;15.42;66.39;101228.75;5016946;28;45513;-59
2022/10/13 07:29:26;;;;;;;;;13.00;7.33;;;;;15.48;66.20;101243.56;5018115;28;45508;-60
2022/10/13 07:31:51;;;;;;;;;7.00;6.67;;;;;15.43;66.16;101240.34;5000475;28;45542;-58
2022/10/13 07:34:16;;;;;;;;;6.00;6.00;;;;;15.34;67.01;101237.28;5016165;28;46189;-61
2022/10/13 07:36:42;;;;;;;;;6.67;6.67;;;;;15.29;67.28;101236.75;5017563;28;45251;-59
2022/10/13 07:39:17;;;;;;;;;9.00;6.50;;;;;15.29;67.55;101239.41;5017786;28;45290;-59
2022/10/13 07:41:42;;;;;;;;;9.00;6.00;;;;;15.27;67.60;101235.13;5017468;28;45324;-58
2022/10/13 07:44:08;;;;;;;;;7.00;6.33;;;;;15.34;67.21;101237.28;5016117;28;45286;-59
2022/10/13 07:46:33;;;;;;;;;9.67;7.33;;;;;15.43;67.75;101245.69;5035481;28;45613;-60
2022/10/13 07:48:59;;;;;;;;;5.67;5.67;;;;;15.49;66.55;101242.59;5023504;28;45627;-58
2022/10/13 07:51:24;;;;;;;;;13.00;7.67;;;;;15.54;67.06;101248.53;5019643;28;45619;-59
2022/10/13 07:53:50;;;;;;;;;10.00;8.00;;;;;15.57;66.35;101249.19;5016305;28;45209;-65
2022/10/13 07:56:16;;;;;;;;;5.33;4.33;;;;;15.52;66.56;101245.94;5039008;28;45292;-64
2022/10/13 07:58:44;;;;;;;;;7.67;7.33;;;;;15.54;66.22;101253.88;5017273;28;45363;-60
2022/10/13 08:01:10;;;;;;;;;11.00;7.33;;;;;15.54;67.25;101257.44;5017040;28;45440;-60
2022/10/13 08:03:36;;;;;;;;;8.00;7.67;;;;;15.53;67.20;101252.16;5015432;28;46297;-59
2022/10/13 08:06:03;;;;;;;;;9.33;9.33;;;;;15.55;67.18;101255.59;5016758;28;45289;-58
2022/10/13 08:08:33;;;;;;;;;12.67;8.33;;;;;15.55;66.93;101256.47;5016955;28;45358;-60
2022/10/13 08:11:04;;;;;;;;;10.00;7.33;;;;;15.55;66.90;101258.28;5019621;28;45446;-59
2022/10/13 08:13:29;;;;;;;;;10.33;8.33;;;;;15.53;67.46;101260.22;5015438;28;47721;-62
2022/10/13 08:16:00;;;;;;;;;8.33;7.33;;;;;15.59;66.73;101267.84;5016418;28;45339;-60
2022/10/13 08:18:26;;;;;;;;;13.67;10.00;;;;;15.57;67.13;101265.25;5031574;28;45463;-60
2022/10/13 08:20:51;;;;;;;;;6.00;6.00;;;;;15.61;66.23;101265.94;5015889;28;45637;-59
2022/10/13 08:23:17;;;;;;;;;6.00;5.33;;;;;15.62;66.86;101263.19;5019699;28;45538;-66
2022/10/13 08:25:48;;;;;;;;;9.67;6.00;;;;;15.59;66.64;101255.31;5025624;28;45777;-59
2022/10/13 08:28:21;;;;;;;;;12.33;9.33;;;;;15.65;66.74;101250.53;5035357;28;45355;-61
2022/10/13 08:30:50;;;;;;;;;12.67;5.33;;;;;15.65;66.14;101250.53;5034465;28;45401;-63
2022/10/13 08:33:16;;;;;;;;;5.33;5.33;;;;;15.70;66.12;101257.28;5036121;28;45443;-62
2022/10/13 08:35:42;;;;;;;;;5.67;5.33;;;;;15.65;66.01;101250.53;5013841;28;45789;-59
2022/10/13 08:38:19;;;;;;;;;5.67;5.67;;;;;15.75;65.87;101259.66;5013682;28;45516;-60
2022/10/13 08:40:50;;;;;;;;;9.00;7.00;;;;;15.75;65.69;101257.84;5031539;28;45385;-64
2022/10/13 08:43:26;;;;;;;;;8.33;6.00;;;;;15.80;65.70;101257.53;5015494;28;45493;-61
2022/10/13 08:45:59;;;;;;;;;7.67;6.00;;;;;15.79;65.24;101254.00;5025323;28;45361;-59
2022/10/13 08:48:40;;;;;;;;;7.00;4.00;;;;;15.84;65.40;101259.91;5016151;28;45319;-59
2022/10/13 08:51:07;;;;;;;;;5.67;5.67;;;;;15.99;64.91;101260.69;5016303;28;45279;-58
2022/10/13 08:53:40;;;;;;;;;9.33;6.33;;;;;16.09;64.39;101252.88;5016233;28;46407;-60
2022/10/13 08:56:13;;;;;;;;;7.00;6.00;;;;;16.12;64.47;101241.94;5017676;28;45415;-59
2022/10/13 08:58:40;;;;;;;;;7.33;5.00;;;;;16.22;64.17;101240.34;5037074;28;45275;-59
2022/10/13 09:01:50;;;;;;;;;6.33;6.33;;;;;16.39;63.76;101264.16;5036320;28;45436;-57
2022/10/13 09:04:34;;;;;;;;;8.00;7.00;;;;;16.46;63.81;101249.38;5018656;28;46432;-59
2022/10/13 09:07:26;;;;;;;;;5.00;5.00;;;;;16.51;63.48;101252.56;5033497;28;45832;-59
2022/10/13 09:09:53;;;;;;;;;7.00;5.00;;;;;16.63;63.34;101244.63;5035955;28;45320;-56
2022/10/13 09:12:23;;;;;;;;;9.00;5.33;;;;;16.69;63.21;101245.09;5051587;28;45534;-57
2022/10/13 09:15:01;;;;;;;;;5.33;5.33;;;;;16.70;62.99;101245.94;5035545;28;46818;-61
2022/10/13 09:17:31;;;;;;;;;6.00;3.67;;;;;16.77;62.80;101249.91;5035561;28;45461;-59
2022/10/13 09:20:28;;;;;;;;;8.33;5.00;;;;;16.79;62.57;101253.31;5035782;28;45398;-59
2022/10/13 09:23:07;;;;;;;;;5.00;5.00;;;;;16.77;62.30;101252.59;5036005;28;45169;-61
2022/10/13 09:25:51;;;;;;;;;4.00;3.00;;;;;16.58;62.59;101236.91;5035715;28;46392;-59
2022/10/13 09:28:30;;;;;;;;;6.67;6.00;;;;;16.72;62.93;101252.91;5034407;28;45861;-59
2022/10/13 09:31:12;;;;;;;;;7.33;5.00;;;;;16.72;62.26;101244.88;5037190;28;45433;-56
2022/10/13 09:33:37;;;;;;;;;8.67;7.00;;;;;16.73;62.68;101243.03;5038959;28;45375;-56
2022/10/13 09:36:05;;;;;;;;;6.33;6.00;;;;;16.73;62.90;101240.34;5038001;28;47165;-61
2022/10/13 09:38:35;;;;;;;;;7.00;5.33;;;;;16.74;63.09;101236.69;5038436;28;45419;-61
2022/10/13 09:41:12;;;;;;;;;6.00;4.33;;;;;16.80;63.45;101236.28;5038817;28;45215;-57
2022/10/13 09:43:42;;;;;;;;;6.33;4.00;;;;;16.78;63.60;101233.66;5039138;28;45370;-61
2022/10/13 09:46:25;;;;;;;;;6.00;6.00;;;;;16.82;63.67;101233.47;5053776;28;46135;-59
2022/10/13 09:48:57;;;;;;;;;4.33;4.33;;;;;16.70;64.12;101229.84;5033882;28;45336;-58
2022/10/13 09:51:29;;;;;;;;;6.00;5.00;;;;;16.66;64.41;101233.66;5018715;28;45471;-57
2022/10/13 09:53:55;;;;;;;;;7.00;4.67;;;;;16.65;64.56;101223.88;5019886;28;45361;-54
2022/10/13 09:56:34;;;;;;;;;5.33;4.00;;;;;16.78;64.64;101247.09;5018689;28;46774;-62
2022/10/13 09:59:20;;;;;;;;;4.67;4.00;;;;;16.80;64.41;101249.69;5012853;28;45493;-58
2022/10/13 10:01:48;;;;;;;;;6.67;5.00;;;;;16.74;64.15;101236.69;5019917;28;45379;-55
2022/10/13 10:04:24;;;;;;;;;4.00;4.00;;;;;16.85;63.95;101244.84;5019078;28;45312;-55
2022/10/13 10:06:50;;;;;;;;;6.67;5.00;;;;;16.84;64.41;101232.38;5018756;28;46170;-54
2022/10/13 10:09:32;;;;;;;;;4.00;4.00;;;;;16.89;64.13;101246.34;5018733;28;44814;-59
2022/10/13 10:11:59;;;;;;;;;6.00;5.00;;;;;16.89;64.37;101240.09;5019036;28;45386;-59
2022/10/13 10:14:31;;;;;;;;;5.33;5.33;;;;;16.80;64.18;101220.16;5019654;28;45221;-64
2022/10/13 10:17:20;;;;;;;;;4.00;4.00;;;;;16.82;64.22;101218.22;5019600;28;46676;-62
2022/10/13 10:20:26;;;;;;;;;9.33;4.33;;;;;17.00;64.25;101243.72;5018865;28;45289;-54
2022/10/13 10:23:01;;;;;;;;;5.33;5.00;;;;;17.01;64.25;101236.53;5034758;28;45494;-51
2022/10/13 10:25:36;;;;;;;;;5.00;5.00;;;;;16.97;64.14;101227.84;5019635;28;45363;-62
2022/10/13 10:28:47;;;;;;;;;4.67;4.67;;;;;17.03;64.27;101248.88;5017127;28;45932;-55
2022/10/13 10:31:43;;;;;;;;;7.33;5.00;;;;;17.01;64.45;101234.69;5016323;28;45309;-54
2022/10/13 10:34:35;;;;;;;;;7.00;6.00;;;;;17.07;64.34;101231.59;5019056;28;45289;-54
2022/10/13 10:37:07;;;;;;;;;5.00;5.00;;;;;17.15;64.19;101232.84;5018469;28;45552;-61
2022/10/13 10:39:48;;;;;;;;;5.00;5.00;;;;;17.20;64.04;101228.00;5017579;28;45287;-60
2022/10/13 10:42:47;;;;;;;;;8.33;7.67;;;;;17.31;63.84;101218.13;5016278;28;45364;-57
2022/10/13 10:45:17;;;;;;;;;6.00;6.00;;;;;17.33;63.63;101212.69;4998632;28;45538;-61
2022/10/13 10:47:47;;;;;;;;;7.33;5.00;;;;;17.28;63.72;101209.44;4998680;28;45265;-58
2022/10/13 10:50:18;;;;;;;;;5.67;5.00;;;;;17.34;63.83;101214.38;4997428;28;45452;-58
2022/10/13 10:52:58;;;;;;;;;6.00;4.67;;;;;17.38;63.79;101211.34;4997615;28;45380;-59
2022/10/13 10:55:24;;;;;;;;;8.00;7.00;;;;;17.41;64.00;101210.25;4997719;28;45468;-57
2022/10/13 10:58:17;;;;;;;;;7.00;5.33;;;;;17.33;63.99;101218.91;5020990;28;45577;-61
2022/10/13 11:01:21;;;;;;;;;6.67;6.33;;;;;17.26;63.79;101217.63;5018126;28;45442;-61
2022/10/13 11:04:00;;;;;;;;;6.00;6.00;;;;;17.20;64.49;101206.50;5016171;28;45433;-58
2022/10/13 11:06:35;;;;;;;;;5.33;4.67;;;;;17.05;64.43;101182.44;5018283;28;45330;-57
2022/10/13 11:09:03;;;;;;;;;5.67;5.67;;;;;17.21;64.56;101210.91;5019184;28;45526;-61
2022/10/13 11:11:30;;;;;;;;;10.67;7.33;;;;;17.16;64.12;101195.09;5033075;28;46193;-64
2022/10/13 11:13:58;;;;;;;;;5.00;5.00;;;;;17.17;64.55;101206.69;5018501;28;45361;-63
2022/10/13 11:16:48;;;;;;;;;6.00;6.00;;;;;17.10;64.86;101200.94;5033315;28;45554;-60
2022/10/13 11:19:35;;;;;;;;;7.00;6.00;;;;;17.04;65.25;101194.16;5018117;28;45286;-60
2022/10/13 11:22:00;;;;;;;;;8.00;7.00;;;;;17.05;65.40;101197.69;5017650;28;46106;-59
2022/10/13 11:24:37;;;;;;;;;8.00;6.33;;;;;17.01;66.20;101196.22;5032704;28;45259;-58
2022/10/13 11:27:15;;;;;;;;;9.00;6.33;;;;;16.95;66.60;101197.53;5017736;28;45450;-56
2022/10/13 11:29:44;;;;;;;;;8.00;7.00;;;;;16.94;66.26;101187.78;5018012;28;45592;-60
2022/10/13 11:32:25;;;;;;;;;7.33;7.33;;;;;17.06;66.23;101194.94;5017822;28;46240;-61
2022/10/13 11:35:33;;;;;;;;;12.67;9.00;;;;;16.86;65.92;101149.00;5032879;28;45451;-61